Alden, KS

6:25 AM CDT on July 29, 2014 (GMT -0500)
RAWS STAFFORD KS US (MQNRK1) Elev 1768 ft | 38.14 °N, 98.48 °W | Change Station

Current weather conditions updated 26 minutes ago

Clear
Clear
61 °F
Feels Like 61 °F
N
6
Wind Variable Wind from ESE
Gusts 9.0 mph

Today is forecast to be nearly the same temperature as yesterday. Showers and thunderstorms late tonight.

Today
High -- | Low -- °F
--% Chance of Precip.
Yesterday
High -- | Low -- °F
Precip. -- in
6:33 AM 8:45 PM
Waxing Crescent, 6% visible
Pressure 30.13 in
Visibility 10.0 miles
Clouds Clear
Dew Point 57 °F
Humidity 86%
Rainfall 0.00 in
Snow Depth Not available.
UV 0 out of 12
Pollen 6.30 out of 12
Air Quality Not available.
Flu Activity Not available.
METAR KHUT 291052Z AUTO 09004KT 10SM CLR 16/13 A3019 RMK AO2 SLP202 T01610128

More Conditions Fewer Conditions

Pressure 30.13 in
Visibility 10.0 miles
Clouds Clear
Dew Point 57 °F
Humidity 86%
Rainfall 0.00 in
Snow Depth Not available.
UV 0 out of 12
Pollen 6.30 out of 12
Air Quality Not available.
Flu Activity Not available.
METAR KHUT 291052Z AUTO 09004KT 10SM CLR 16/13 A3019 RMK AO2 SLP202 T01610128

More Conditions Fewer Conditions

10-Day Weather Forecast

Almanac

Astronomy

Jul. 29, 2014 Rise Set
Actual Time 6:33 AM CDT 8:45 PM CDT
Civil Twilight 6:03 AM CDT 9:15 PM CDT
Nautical Twilight 5:27 AM CDT 9:51 PM CDT
Astronomical Twilight 4:47 AM CDT 10:30 PM CDT
Moon 9:07 AM CDT 10:02 PM CDT
Length of Visible Light 15h 11m
Length of Day
14h 12m
Tomorrow will be 1m 47s shorter.
Waxing Crescent, 6% of the Moon is Illuminated
Today
Waxing Crescent
Aug 3
First Quarter
Aug 10
Full
Aug 17
Last Quarter
Aug 25
New

Today's Extremes

State Highs State Lows

Community

WunderPhotos

Upload Photos

1,738,685 photos uploaded!

Nearby

Snow Depth

Station Depth Elevation
No new snow has been reported.

Earthquake Activity

City Distance Mag. Time & Date
Helena, Oklahoma 109 miles 2.6 12:50 PM CDT
2014-07-22
Minimum magnitude displayed is 2.5.

Coastal Water Temperatures

Place Temperature
No Stations Reporting

Nearby Weather Stations

Station Location Temp. Dew Point Humidity Wind Precip. Elev Updated Type
RAWS STAFFORD KS, Hudson, KS 61 °F 57 °F 86% ESE  at  6 mph 0.00 in / hr 1768 ft 5:59 AM CDT MADIS
Ellinwood High School, Ellinwood, KS 62.2 °F 57 °F 82% East  at  2.0 mph 0.00 in / hr 1811 ft 6:25 AM CDT Rapid Fire
Hutchinson, KS 64.6 °F 59 °F 81% East  at  3.8 mph 0.00 in / hr 1549 ft 6:25 AM CDT Rapid Fire

Show More Stations Show Fewer Stations